sensor_id;sensor_type;location;lat;lon;timestamp;P1;durP1;ratioP1;P2;durP2;ratioP2
72201;SDS011;60105;54.956;73.412;2023-04-06T00:00:49;7.63;;;4.50;;
72201;SDS011;60105;54.956;73.412;2023-04-06T00:03:52;12.05;;;4.40;;
72201;SDS011;60105;54.956;73.412;2023-04-06T00:07:03;7.57;;;4.33;;
72201;SDS011;60105;54.956;73.412;2023-04-06T00:10:15;10.05;;;4.72;;
72201;SDS011;60105;54.956;73.412;2023-04-06T00:13:17;9.38;;;4.97;;
72201;SDS011;60105;54.956;73.412;2023-04-06T00:19:41;12.25;;;4.53;;
72201;SDS011;60105;54.956;73.412;2023-04-06T00:22:43;10.98;;;4.97;;
72201;SDS011;60105;54.956;73.412;2023-04-06T00:25:45;7.75;;;5.18;;
72201;SDS011;60105;54.956;73.412;2023-04-06T00:28:46;12.80;;;4.88;;
72201;SDS011;60105;54.956;73.412;2023-04-06T00:31:48;8.40;;;5.20;;
72201;SDS011;60105;54.956;73.412;2023-04-06T00:34:49;12.80;;;5.35;;
72201;SDS011;60105;54.956;73.412;2023-04-06T00:37:51;10.45;;;5.25;;
72201;SDS011;60105;54.956;73.412;2023-04-06T00:40:52;14.07;;;6.00;;
72201;SDS011;60105;54.956;73.412;2023-04-06T00:43:54;14.73;;;6.28;;
72201;SDS011;60105;54.956;73.412;2023-04-06T00:46:56;12.23;;;6.13;;
72201;SDS011;60105;54.956;73.412;2023-04-06T00:49:57;9.95;;;4.93;;
72201;SDS011;60105;54.956;73.412;2023-04-06T00:52:59;10.30;;;5.57;;
72201;SDS011;60105;54.956;73.412;2023-04-06T00:56:41;11.90;;;5.35;;
72201;SDS011;60105;54.956;73.412;2023-04-06T00:59:44;15.85;;;6.20;;
72201;SDS011;60105;54.956;73.412;2023-04-06T01:02:52;12.83;;;6.33;;
72201;SDS011;60105;54.956;73.412;2023-04-06T01:06:40;13.34;;;6.68;;
72201;SDS011;60105;54.956;73.412;2023-04-06T01:09:53;14.27;;;7.50;;
72201;SDS011;60105;54.956;73.412;2023-04-06T01:12:58;21.20;;;7.63;;
72201;SDS011;60105;54.956;73.412;2023-04-06T01:19:45;27.02;;;7.70;;
72201;SDS011;60105;54.956;73.412;2023-04-06T01:22:55;16.20;;;7.47;;
72201;SDS011;60105;54.956;73.412;2023-04-06T01:26:40;14.77;;;6.99;;
72201;SDS011;60105;54.956;73.412;2023-04-06T01:29:43;13.60;;;6.22;;
72201;SDS011;60105;54.956;73.412;2023-04-06T01:32:49;17.53;;;6.60;;
72201;SDS011;60105;54.956;73.412;2023-04-06T01:36:40;15.32;;;6.65;;
72201;SDS011;60105;54.956;73.412;2023-04-06T01:39:55;12.80;;;6.55;;
72201;SDS011;60105;54.956;73.412;2023-04-06T01:43:22;18.60;;;6.30;;
72201;SDS011;60105;54.956;73.412;2023-04-06T01:46:40;17.90;;;6.40;;
72201;SDS011;60105;54.956;73.412;2023-04-06T01:49:42;16.63;;;5.90;;
72201;SDS011;60105;54.956;73.412;2023-04-06T01:52:52;11.20;;;5.78;;
72201;SDS011;60105;54.956;73.412;2023-04-06T01:55:53;17.52;;;7.30;;
72201;SDS011;60105;54.956;73.412;2023-04-06T01:59:03;11.30;;;5.83;;
72201;SDS011;60105;54.956;73.412;2023-04-06T02:02:11;12.10;;;6.87;;
72201;SDS011;60105;54.956;73.412;2023-04-06T02:05:16;15.50;;;7.10;;
72201;SDS011;60105;54.956;73.412;2023-04-06T02:08:18;15.80;;;6.80;;
72201;SDS011;60105;54.956;73.412;2023-04-06T02:11:20;12.85;;;6.25;;
72201;SDS011;60105;54.956;73.412;2023-04-06T02:14:25;13.38;;;5.85;;
72201;SDS011;60105;54.956;73.412;2023-04-06T02:17:29;10.73;;;5.83;;
72201;SDS011;60105;54.956;73.412;2023-04-06T02:20:40;17.08;;;6.30;;
72201;SDS011;60105;54.956;73.412;2023-04-06T02:23:47;10.43;;;5.27;;
72201;SDS011;60105;54.956;73.412;2023-04-06T02:26:50;14.77;;;5.47;;
72201;SDS011;60105;54.956;73.412;2023-04-06T02:29:56;11.30;;;5.43;;
72201;SDS011;60105;54.956;73.412;2023-04-06T02:32:59;13.73;;;6.43;;
72201;SDS011;60105;54.956;73.412;2023-04-06T02:36:40;11.98;;;5.97;;
72201;SDS011;60105;54.956;73.412;2023-04-06T02:39:42;13.33;;;6.43;;
72201;SDS011;60105;54.956;73.412;2023-04-06T02:42:43;8.77;;;5.50;;
72201;SDS011;60105;54.956;73.412;2023-04-06T02:45:46;13.80;;;5.47;;
72201;SDS011;60105;54.956;73.412;2023-04-06T02:48:48;9.60;;;4.82;;
72201;SDS011;60105;54.956;73.412;2023-04-06T02:51:49;17.73;;;7.83;;
72201;SDS011;60105;54.956;73.412;2023-04-06T02:54:59;17.38;;;7.75;;
72201;SDS011;60105;54.956;73.412;2023-04-06T02:58:03;29.23;;;11.32;;
72201;SDS011;60105;54.956;73.412;2023-04-06T03:01:40;31.13;;;10.40;;
72201;SDS011;60105;54.956;73.412;2023-04-06T03:04:41;44.63;;;15.57;;
72201;SDS011;60105;54.956;73.412;2023-04-06T03:07:53;36.78;;;13.88;;
72201;SDS011;60105;54.956;73.412;2023-04-06T03:11:08;31.73;;;12.57;;
72201;SDS011;60105;54.956;73.412;2023-04-06T03:14:14;33.42;;;13.05;;
72201;SDS011;60105;54.956;73.412;2023-04-06T03:17:18;24.67;;;9.60;;
72201;SDS011;60105;54.956;73.412;2023-04-06T03:20:29;22.67;;;9.13;;
72201;SDS011;60105;54.956;73.412;2023-04-06T03:23:30;21.80;;;8.90;;
72201;SDS011;60105;54.956;73.412;2023-04-06T03:29:42;27.77;;;10.57;;
72201;SDS011;60105;54.956;73.412;2023-04-06T03:32:48;23.58;;;9.85;;
72201;SDS011;60105;54.956;73.412;2023-04-06T03:36:40;26.23;;;10.02;;
72201;SDS011;60105;54.956;73.412;2023-04-06T03:39:41;22.25;;;8.90;;
72201;SDS011;60105;54.956;73.412;2023-04-06T03:42:43;22.02;;;10.55;;
72201;SDS011;60105;54.956;73.412;2023-04-06T03:45:48;17.93;;;7.83;;
72201;SDS011;60105;54.956;73.412;2023-04-06T03:48:50;18.20;;;9.07;;
72201;SDS011;60105;54.956;73.412;2023-04-06T03:51:54;13.70;;;7.07;;
72201;SDS011;60105;54.956;73.412;2023-04-06T03:54:57;16.48;;;7.53;;
72201;SDS011;60105;54.956;73.412;2023-04-06T03:57:58;17.60;;;7.17;;
72201;SDS011;60105;54.956;73.412;2023-04-06T04:01:40;14.00;;;7.28;;
72201;SDS011;60105;54.956;73.412;2023-04-06T04:04:41;15.70;;;6.13;;
72201;SDS011;60105;54.956;73.412;2023-04-06T04:07:42;16.98;;;5.22;;
72201;SDS011;60105;54.956;73.412;2023-04-06T04:10:46;20.80;;;5.55;;
72201;SDS011;60105;54.956;73.412;2023-04-06T04:13:47;14.90;;;6.70;;
72201;SDS011;60105;54.956;73.412;2023-04-06T04:16:49;11.03;;;5.00;;
72201;SDS011;60105;54.956;73.412;2023-04-06T04:19:50;15.70;;;6.03;;
72201;SDS011;60105;54.956;73.412;2023-04-06T04:22:56;18.90;;;5.95;;
72201;SDS011;60105;54.956;73.412;2023-04-06T04:26:39;12.56;;;5.33;;
72201;SDS011;60105;54.956;73.412;2023-04-06T04:29:47;21.85;;;7.63;;
72201;SDS011;60105;54.956;73.412;2023-04-06T04:32:48;11.50;;;6.10;;
72201;SDS011;60105;54.956;73.412;2023-04-06T04:35:53;13.55;;;5.18;;
72201;SDS011;60105;54.956;73.412;2023-04-06T04:38:57;22.55;;;6.93;;
72201;SDS011;60105;54.956;73.412;2023-04-06T04:42:08;17.20;;;6.80;;
72201;SDS011;60105;54.956;73.412;2023-04-06T04:45:14;13.00;;;5.20;;
72201;SDS011;60105;54.956;73.412;2023-04-06T04:48:16;8.80;;;4.75;;
72201;SDS011;60105;54.956;73.412;2023-04-06T04:54:53;10.68;;;5.18;;
72201;SDS011;60105;54.956;73.412;2023-04-06T04:58:01;10.20;;;4.43;;
72201;SDS011;60105;54.956;73.412;2023-04-06T05:04:41;10.70;;;5.30;;
72201;SDS011;60105;54.956;73.412;2023-04-06T05:07:46;9.32;;;4.63;;
72201;SDS011;60105;54.956;73.412;2023-04-06T05:11:08;10.10;;;5.38;;
72201;SDS011;60105;54.956;73.412;2023-04-06T05:14:15;11.07;;;4.70;;
72201;SDS011;60105;54.956;73.412;2023-04-06T05:17:18;13.18;;;5.00;;
72201;SDS011;60105;54.956;73.412;2023-04-06T05:20:19;12.60;;;4.93;;
72201;SDS011;60105;54.956;73.412;2023-04-06T05:23:24;9.73;;;4.85;;
72201;SDS011;60105;54.956;73.412;2023-04-06T05:29:48;10.83;;;4.37;;
72201;SDS011;60105;54.956;73.412;2023-04-06T05:32:51;8.25;;;4.55;;
72201;SDS011;60105;54.956;73.412;2023-04-06T05:35:53;9.67;;;5.20;;
72201;SDS011;60105;54.956;73.412;2023-04-06T05:38:54;12.20;;;4.77;;
72201;SDS011;60105;54.956;73.412;2023-04-06T05:42:23;9.13;;;5.07;;
72201;SDS011;60105;54.956;73.412;2023-04-06T05:45:32;9.38;;;4.25;;
72201;SDS011;60105;54.956;73.412;2023-04-06T05:48:34;10.60;;;4.17;;
72201;SDS011;60105;54.956;73.412;2023-04-06T05:54:51;11.40;;;4.10;;
72201;SDS011;60105;54.956;73.412;2023-04-06T05:57:53;8.93;;;4.27;;
72201;SDS011;60105;54.956;73.412;2023-04-06T06:01:39;9.88;;;4.03;;
72201;SDS011;60105;54.956;73.412;2023-04-06T06:04:41;11.43;;;3.85;;
72201;SDS011;60105;54.956;73.412;2023-04-06T06:07:42;18.40;;;4.07;;
72201;SDS011;60105;54.956;73.412;2023-04-06T06:10:50;11.00;;;4.10;;
72201;SDS011;60105;54.956;73.412;2023-04-06T06:14:05;8.90;;;3.40;;
72201;SDS011;60105;54.956;73.412;2023-04-06T06:17:13;14.23;;;3.60;;
72201;SDS011;60105;54.956;73.412;2023-04-06T06:20:19;8.23;;;3.58;;
72201;SDS011;60105;54.956;73.412;2023-04-06T06:23:22;9.50;;;3.67;;
72201;SDS011;60105;54.956;73.412;2023-04-06T06:29:52;7.35;;;3.53;;
72201;SDS011;60105;54.956;73.412;2023-04-06T06:32:54;6.93;;;3.63;;
72201;SDS011;60105;54.956;73.412;2023-04-06T06:36:39;9.94;;;3.95;;
72201;SDS011;60105;54.956;73.412;2023-04-06T06:39:43;13.57;;;3.90;;
72201;SDS011;60105;54.956;73.412;2023-04-06T06:42:45;12.13;;;3.47;;
72201;SDS011;60105;54.956;73.412;2023-04-06T06:46:39;8.15;;;3.36;;
72201;SDS011;60105;54.956;73.412;2023-04-06T06:49:51;9.57;;;4.32;;
72201;SDS011;60105;54.956;73.412;2023-04-06T06:52:52;9.93;;;3.78;;
72201;SDS011;60105;54.956;73.412;2023-04-06T06:55:54;13.27;;;3.60;;
72201;SDS011;60105;54.956;73.412;2023-04-06T06:59:05;10.43;;;3.90;;
72201;SDS011;60105;54.956;73.412;2023-04-06T07:02:07;8.60;;;3.23;;
72201;SDS011;60105;54.956;73.412;2023-04-06T07:05:14;11.32;;;3.72;;
72201;SDS011;60105;54.956;73.412;2023-04-06T07:08:16;10.07;;;3.17;;
72201;SDS011;60105;54.956;73.412;2023-04-06T07:11:17;8.73;;;3.27;;
72201;SDS011;60105;54.956;73.412;2023-04-06T07:14:19;8.15;;;3.60;;
72201;SDS011;60105;54.956;73.412;2023-04-06T07:17:26;8.10;;;3.70;;
72201;SDS011;60105;54.956;73.412;2023-04-06T07:20:27;9.45;;;3.80;;
72201;SDS011;60105;54.956;73.412;2023-04-06T07:23:29;8.60;;;2.80;;
72201;SDS011;60105;54.956;73.412;2023-04-06T07:29:46;10.52;;;3.60;;
72201;SDS011;60105;54.956;73.412;2023-04-06T07:32:52;11.30;;;3.20;;
72201;SDS011;60105;54.956;73.412;2023-04-06T07:35:55;6.07;;;3.15;;
72201;SDS011;60105;54.956;73.412;2023-04-06T07:38:57;9.97;;;2.93;;
72201;SDS011;60105;54.956;73.412;2023-04-06T07:41:59;10.47;;;3.33;;
72201;SDS011;60105;54.956;73.412;2023-04-06T07:45:00;6.47;;;3.13;;
72201;SDS011;60105;54.956;73.412;2023-04-06T07:48:02;9.80;;;3.67;;
72201;SDS011;60105;54.956;73.412;2023-04-06T07:51:39;11.50;;;4.35;;
72201;SDS011;60105;54.956;73.412;2023-04-06T07:54:46;10.02;;;3.28;;
72201;SDS011;60105;54.956;73.412;2023-04-06T07:57:50;9.47;;;3.53;;
72201;SDS011;60105;54.956;73.412;2023-04-06T08:00:51;13.18;;;2.95;;
72201;SDS011;60105;54.956;73.412;2023-04-06T08:03:52;10.70;;;3.85;;
72201;SDS011;60105;54.956;73.412;2023-04-06T08:06:56;6.87;;;3.13;;
72201;SDS011;60105;54.956;73.412;2023-04-06T08:09:57;11.10;;;3.85;;
72201;SDS011;60105;54.956;73.412;2023-04-06T08:12:58;8.47;;;3.17;;
72201;SDS011;60105;54.956;73.412;2023-04-06T08:16:39;7.47;;;3.08;;
72201;SDS011;60105;54.956;73.412;2023-04-06T08:19:42;12.60;;;3.50;;
72201;SDS011;60105;54.956;73.412;2023-04-06T08:22:47;10.40;;;4.18;;
72201;SDS011;60105;54.956;73.412;2023-04-06T08:25:49;10.25;;;3.00;;
72201;SDS011;60105;54.956;73.412;2023-04-06T08:28:50;10.60;;;2.90;;
72201;SDS011;60105;54.956;73.412;2023-04-06T08:31:51;7.00;;;3.23;;
72201;SDS011;60105;54.956;73.412;2023-04-06T08:34:53;10.33;;;3.20;;
72201;SDS011;60105;54.956;73.412;2023-04-06T08:37:56;9.13;;;3.90;;
72201;SDS011;60105;54.956;73.412;2023-04-06T08:41:09;12.76;;;4.34;;
72201;SDS011;60105;54.956;73.412;2023-04-06T08:44:21;10.32;;;3.78;;
72201;SDS011;60105;54.956;73.412;2023-04-06T08:47:22;12.10;;;4.27;;
72201;SDS011;60105;54.956;73.412;2023-04-06T08:50:23;8.90;;;3.50;;
72201;SDS011;60105;54.956;73.412;2023-04-06T08:53:25;11.10;;;3.08;;
72201;SDS011;60105;54.956;73.412;2023-04-06T08:59:41;11.15;;;3.28;;
72201;SDS011;60105;54.956;73.412;2023-04-06T09:02:43;10.48;;;3.53;;
72201;SDS011;60105;54.956;73.412;2023-04-06T09:06:39;12.57;;;3.55;;
72201;SDS011;60105;54.956;73.412;2023-04-06T09:09:46;9.30;;;3.33;;
72201;SDS011;60105;54.956;73.412;2023-04-06T09:13:01;11.65;;;3.70;;
72201;SDS011;60105;54.956;73.412;2023-04-06T09:16:40;9.75;;;3.30;;
72201;SDS011;60105;54.956;73.412;2023-04-06T09:19:46;8.55;;;3.10;;
72201;SDS011;60105;54.956;73.412;2023-04-06T09:22:47;8.57;;;3.70;;
72201;SDS011;60105;54.956;73.412;2023-04-06T09:25:50;7.07;;;3.30;;
72201;SDS011;60105;54.956;73.412;2023-04-06T09:28:52;9.75;;;3.00;;
72201;SDS011;60105;54.956;73.412;2023-04-06T09:32:07;11.57;;;3.40;;
72201;SDS011;60105;54.956;73.412;2023-04-06T09:35:11;10.32;;;3.15;;
72201;SDS011;60105;54.956;73.412;2023-04-06T09:38:12;9.80;;;3.30;;
72201;SDS011;60105;54.956;73.412;2023-04-06T09:41:20;7.35;;;2.95;;
72201;SDS011;60105;54.956;73.412;2023-04-06T09:44:22;10.63;;;2.83;;
72201;SDS011;60105;54.956;73.412;2023-04-06T09:47:24;12.32;;;3.30;;
72201;SDS011;60105;54.956;73.412;2023-04-06T09:50:27;7.13;;;3.08;;
72201;SDS011;60105;54.956;73.412;2023-04-06T09:53:29;10.17;;;3.53;;
72201;SDS011;60105;54.956;73.412;2023-04-06T10:09:41;7.63;;;2.70;;
72201;SDS011;60105;54.956;73.412;2023-04-06T10:12:47;6.57;;;3.40;;
72201;SDS011;60105;54.956;73.412;2023-04-06T10:15:49;11.80;;;3.17;;
72201;SDS011;60105;54.956;73.412;2023-04-06T10:18:54;7.43;;;2.50;;
72201;SDS011;60105;54.956;73.412;2023-04-06T10:22:11;8.47;;;2.30;;
72201;SDS011;60105;54.956;73.412;2023-04-06T10:25:16;8.48;;;3.10;;
72201;SDS011;60105;54.956;73.412;2023-04-06T10:28:18;10.50;;;2.97;;
72201;SDS011;60105;54.956;73.412;2023-04-06T10:34:42;9.40;;;3.63;;
72201;SDS011;60105;54.956;73.412;2023-04-06T10:37:50;7.70;;;2.88;;
72201;SDS011;60105;54.956;73.412;2023-04-06T10:41:09;7.10;;;3.58;;
72201;SDS011;60105;54.956;73.412;2023-04-06T10:44:21;7.27;;;3.07;;
72201;SDS011;60105;54.956;73.412;2023-04-06T10:47:23;6.45;;;2.63;;
72201;SDS011;60105;54.956;73.412;2023-04-06T10:50:24;6.85;;;2.92;;
72201;SDS011;60105;54.956;73.412;2023-04-06T10:53:29;8.40;;;3.00;;
72201;SDS011;60105;54.956;73.412;2023-04-06T10:59:44;16.55;;;3.85;;
72201;SDS011;60105;54.956;73.412;2023-04-06T11:02:45;10.27;;;3.43;;
72201;SDS011;60105;54.956;73.412;2023-04-06T11:05:49;6.10;;;2.83;;
72201;SDS011;60105;54.956;73.412;2023-04-06T11:08:51;9.48;;;3.33;;
72201;SDS011;60105;54.956;73.412;2023-04-06T11:11:53;8.57;;;4.33;;
72201;SDS011;60105;54.956;73.412;2023-04-06T11:15:01;9.55;;;3.30;;
72201;SDS011;60105;54.956;73.412;2023-04-06T11:18:07;7.27;;;3.30;;
72201;SDS011;60105;54.956;73.412;2023-04-06T11:21:40;6.18;;;2.88;;
72201;SDS011;60105;54.956;73.412;2023-04-06T11:24:47;9.15;;;4.18;;
72201;SDS011;60105;54.956;73.412;2023-04-06T11:27:52;18.50;;;5.33;;
72201;SDS011;60105;54.956;73.412;2023-04-06T11:30:53;11.90;;;4.32;;
72201;SDS011;60105;54.956;73.412;2023-04-06T11:33:56;10.50;;;3.70;;
72201;SDS011;60105;54.956;73.412;2023-04-06T11:36:58;11.25;;;4.78;;
72201;SDS011;60105;54.956;73.412;2023-04-06T11:40:01;14.45;;;4.88;;
72201;SDS011;60105;54.956;73.412;2023-04-06T11:43:03;10.03;;;4.10;;
72201;SDS011;60105;54.956;73.412;2023-04-06T11:46:39;11.00;;;4.03;;
72201;SDS011;60105;54.956;73.412;2023-04-06T11:49:51;17.42;;;3.40;;
72201;SDS011;60105;54.956;73.412;2023-04-06T11:52:59;9.23;;;2.80;;
72201;SDS011;60105;54.956;73.412;2023-04-06T11:56:39;11.75;;;4.80;;
72201;SDS011;60105;54.956;73.412;2023-04-06T11:59:45;15.93;;;3.53;;
72201;SDS011;60105;54.956;73.412;2023-04-06T12:02:51;9.37;;;3.60;;
72201;SDS011;60105;54.956;73.412;2023-04-06T12:05:53;9.57;;;3.42;;
72201;SDS011;60105;54.956;73.412;2023-04-06T12:08:54;9.93;;;3.33;;
72201;SDS011;60105;54.956;73.412;2023-04-06T12:11:55;13.87;;;4.60;;
72201;SDS011;60105;54.956;73.412;2023-04-06T12:15:08;14.77;;;4.38;;
72201;SDS011;60105;54.956;73.412;2023-04-06T12:18:09;10.43;;;4.07;;
72201;SDS011;60105;54.956;73.412;2023-04-06T12:21:39;9.48;;;3.25;;
72201;SDS011;60105;54.956;73.412;2023-04-06T12:24:41;15.03;;;5.63;;
72201;SDS011;60105;54.956;73.412;2023-04-06T12:27:42;15.82;;;4.80;;
72201;SDS011;60105;54.956;73.412;2023-04-06T12:30:48;12.38;;;4.68;;
72201;SDS011;60105;54.956;73.412;2023-04-06T12:33:51;18.30;;;4.20;;
72201;SDS011;60105;54.956;73.412;2023-04-06T12:36:57;17.13;;;4.82;;
72201;SDS011;60105;54.956;73.412;2023-04-06T12:39:58;11.45;;;4.00;;
72201;SDS011;60105;54.956;73.412;2023-04-06T12:43:03;13.43;;;3.93;;
72201;SDS011;60105;54.956;73.412;2023-04-06T12:46:39;15.07;;;4.10;;
72201;SDS011;60105;54.956;73.412;2023-04-06T12:49:41;19.00;;;5.10;;
72201;SDS011;60105;54.956;73.412;2023-04-06T12:52:48;14.48;;;5.80;;
72201;SDS011;60105;54.956;73.412;2023-04-06T12:55:49;12.27;;;4.83;;
72201;SDS011;60105;54.956;73.412;2023-04-06T12:58:51;20.80;;;5.53;;
72201;SDS011;60105;54.956;73.412;2023-04-06T13:01:58;15.30;;;6.80;;
72201;SDS011;60105;54.956;73.412;2023-04-06T13:05:09;24.65;;;10.63;;
72201;SDS011;60105;54.956;73.412;2023-04-06T13:08:11;22.43;;;10.83;;
72201;SDS011;60105;54.956;73.412;2023-04-06T13:11:22;26.70;;;11.90;;
72201;SDS011;60105;54.956;73.412;2023-04-06T13:14:37;17.52;;;8.82;;
72201;SDS011;60105;54.956;73.412;2023-04-06T13:17:40;19.60;;;9.57;;
72201;SDS011;60105;54.956;73.412;2023-04-06T13:20:41;21.40;;;9.13;;
72201;SDS011;60105;54.956;73.412;2023-04-06T13:23:48;23.13;;;9.13;;
72201;SDS011;60105;54.956;73.412;2023-04-06T13:26:49;25.33;;;9.10;;
72201;SDS011;60105;54.956;73.412;2023-04-06T13:29:51;19.40;;;8.98;;
72201;SDS011;60105;54.956;73.412;2023-04-06T13:32:52;19.70;;;7.50;;
72201;SDS011;60105;54.956;73.412;2023-04-06T13:35:54;16.40;;;8.95;;
72201;SDS011;60105;54.956;73.412;2023-04-06T13:39:05;17.97;;;7.70;;
72201;SDS011;60105;54.956;73.412;2023-04-06T13:42:07;23.10;;;8.40;;
72201;SDS011;60105;54.956;73.412;2023-04-06T13:45:08;23.23;;;8.02;;
72201;SDS011;60105;54.956;73.412;2023-04-06T13:48:10;18.63;;;8.82;;
72201;SDS011;60105;54.956;73.412;2023-04-06T13:51:39;17.92;;;8.02;;
72201;SDS011;60105;54.956;73.412;2023-04-06T13:54:41;27.10;;;8.80;;
72201;SDS011;60105;54.956;73.412;2023-04-06T13:57:42;19.97;;;8.23;;
72201;SDS011;60105;54.956;73.412;2023-04-06T14:00:43;27.40;;;8.90;;
72201;SDS011;60105;54.956;73.412;2023-04-06T14:03:44;22.77;;;10.27;;
72201;SDS011;60105;54.956;73.412;2023-04-06T14:06:52;21.13;;;10.13;;
72201;SDS011;60105;54.956;73.412;2023-04-06T14:10:03;32.72;;;12.65;;
72201;SDS011;60105;54.956;73.412;2023-04-06T14:13:05;38.93;;;14.90;;
72201;SDS011;60105;54.956;73.412;2023-04-06T14:16:39;31.63;;;13.95;;
72201;SDS011;60105;54.956;73.412;2023-04-06T14:19:42;30.80;;;15.70;;
72201;SDS011;60105;54.956;73.412;2023-04-06T14:22:54;36.20;;;18.98;;
72201;SDS011;60105;54.956;73.412;2023-04-06T14:26:39;34.42;;;19.17;;
72201;SDS011;60105;54.956;73.412;2023-04-06T14:29:45;37.65;;;20.90;;
72201;SDS011;60105;54.956;73.412;2023-04-06T14:32:46;32.05;;;20.38;;
72201;SDS011;60105;54.956;73.412;2023-04-06T14:35:48;39.13;;;21.30;;
72201;SDS011;60105;54.956;73.412;2023-04-06T14:38:49;48.43;;;22.73;;
72201;SDS011;60105;54.956;73.412;2023-04-06T14:41:50;35.60;;;20.58;;
72201;SDS011;60105;54.956;73.412;2023-04-06T14:44:52;43.38;;;19.90;;
72201;SDS011;60105;54.956;73.412;2023-04-06T14:47:54;42.23;;;20.50;;
72201;SDS011;60105;54.956;73.412;2023-04-06T14:51:39;42.15;;;21.31;;
72201;SDS011;60105;54.956;73.412;2023-04-06T14:54:47;59.47;;;20.03;;
72201;SDS011;60105;54.956;73.412;2023-04-06T14:57:48;84.13;;;21.63;;
72201;SDS011;60105;54.956;73.412;2023-04-06T15:01:39;71.16;;;21.48;;
72201;SDS011;60105;54.956;73.412;2023-04-06T15:04:40;61.13;;;20.17;;
72201;SDS011;60105;54.956;73.412;2023-04-06T15:07:42;72.37;;;24.10;;
72201;SDS011;60105;54.956;73.412;2023-04-06T15:10:49;77.55;;;21.45;;
72201;SDS011;60105;54.956;73.412;2023-04-06T15:13:52;72.18;;;21.85;;
72201;SDS011;60105;54.956;73.412;2023-04-06T15:16:53;59.00;;;21.08;;
72201;SDS011;60105;54.956;73.412;2023-04-06T15:19:55;60.75;;;20.75;;
72201;SDS011;60105;54.956;73.412;2023-04-06T15:22:56;74.83;;;18.57;;
72201;SDS011;60105;54.956;73.412;2023-04-06T15:26:39;61.72;;;19.27;;
72201;SDS011;60105;54.956;73.412;2023-04-06T15:29:40;75.23;;;23.47;;
72201;SDS011;60105;54.956;73.412;2023-04-06T15:32:52;49.75;;;16.52;;
72201;SDS011;60105;54.956;73.412;2023-04-06T15:36:39;65.97;;;20.05;;
72201;SDS011;60105;54.956;73.412;2023-04-06T15:39:41;56.97;;;20.17;;
72201;SDS011;60105;54.956;73.412;2023-04-06T15:42:43;65.17;;;19.23;;
72201;SDS011;60105;54.956;73.412;2023-04-06T15:45:45;54.45;;;16.90;;
72201;SDS011;60105;54.956;73.412;2023-04-06T15:48:47;58.17;;;18.77;;
72201;SDS011;60105;54.956;73.412;2023-04-06T15:51:49;37.67;;;14.90;;
72201;SDS011;60105;54.956;73.412;2023-04-06T15:54:51;68.72;;;19.65;;
72201;SDS011;60105;54.956;73.412;2023-04-06T15:57:57;79.47;;;20.23;;
72201;SDS011;60105;54.956;73.412;2023-04-06T16:01:39;84.07;;;20.13;;
72201;SDS011;60105;54.956;73.412;2023-04-06T16:04:42;62.47;;;19.92;;
72201;SDS011;60105;54.956;73.412;2023-04-06T16:07:43;62.08;;;16.95;;
72201;SDS011;60105;54.956;73.412;2023-04-06T16:10:44;77.32;;;17.40;;
72201;SDS011;60105;54.956;73.412;2023-04-06T16:13:46;62.30;;;17.13;;
72201;SDS011;60105;54.956;73.412;2023-04-06T16:16:52;80.82;;;20.50;;
72201;SDS011;60105;54.956;73.412;2023-04-06T16:19:54;60.47;;;19.15;;
72201;SDS011;60105;54.956;73.412;2023-04-06T16:22:55;59.67;;;19.20;;
72201;SDS011;60105;54.956;73.412;2023-04-06T16:26:39;53.10;;;17.77;;
72201;SDS011;60105;54.956;73.412;2023-04-06T16:29:41;47.95;;;16.50;;
72201;SDS011;60105;54.956;73.412;2023-04-06T16:32:42;47.40;;;15.83;;
72201;SDS011;60105;54.956;73.412;2023-04-06T16:35:46;51.63;;;15.70;;
72201;SDS011;60105;54.956;73.412;2023-04-06T16:38:59;56.87;;;14.30;;
72201;SDS011;60105;54.956;73.412;2023-04-06T16:42:01;50.73;;;16.67;;
72201;SDS011;60105;54.956;73.412;2023-04-06T16:45:02;61.85;;;17.45;;
72201;SDS011;60105;54.956;73.412;2023-04-06T16:48:04;52.80;;;16.80;;
72201;SDS011;60105;54.956;73.412;2023-04-06T16:51:39;53.08;;;17.13;;
72201;SDS011;60105;54.956;73.412;2023-04-06T16:54:41;72.00;;;19.17;;
72201;SDS011;60105;54.956;73.412;2023-04-06T16:57:42;63.08;;;20.05;;
72201;SDS011;60105;54.956;73.412;2023-04-06T17:00:44;69.67;;;22.17;;
72201;SDS011;60105;54.956;73.412;2023-04-06T17:03:46;62.73;;;22.17;;
72201;SDS011;60105;54.956;73.412;2023-04-06T17:06:48;85.77;;;19.53;;
72201;SDS011;60105;54.956;73.412;2023-04-06T17:09:54;76.32;;;21.65;;
72201;SDS011;60105;54.956;73.412;2023-04-06T17:12:55;73.25;;;23.60;;
72201;SDS011;60105;54.956;73.412;2023-04-06T17:16:39;82.06;;;22.96;;
72201;SDS011;60105;54.956;73.412;2023-04-06T17:19:40;85.95;;;27.13;;
72201;SDS011;60105;54.956;73.412;2023-04-06T17:22:52;83.50;;;28.03;;
72201;SDS011;60105;54.956;73.412;2023-04-06T17:25:53;102.65;;;27.23;;
72201;SDS011;60105;54.956;73.412;2023-04-06T17:29:01;86.10;;;26.47;;
72201;SDS011;60105;54.956;73.412;2023-04-06T17:32:02;80.80;;;27.48;;
72201;SDS011;60105;54.956;73.412;2023-04-06T17:35:03;92.07;;;30.63;;
72201;SDS011;60105;54.956;73.412;2023-04-06T17:38:11;55.30;;;20.00;;
72201;SDS011;60105;54.956;73.412;2023-04-06T17:41:17;37.88;;;17.35;;
72201;SDS011;60105;54.956;73.412;2023-04-06T17:44:20;49.43;;;14.53;;
72201;SDS011;60105;54.956;73.412;2023-04-06T17:47:21;30.15;;;12.57;;
72201;SDS011;60105;54.956;73.412;2023-04-06T17:50:25;20.33;;;8.17;;
72201;SDS011;60105;54.956;73.412;2023-04-06T17:53:37;19.57;;;6.63;;
72201;SDS011;60105;54.956;73.412;2023-04-06T17:59:41;15.88;;;6.32;;
72201;SDS011;60105;54.956;73.412;2023-04-06T18:02:52;19.37;;;4.80;;
72201;SDS011;60105;54.956;73.412;2023-04-06T18:05:54;16.20;;;5.00;;
72201;SDS011;60105;54.956;73.412;2023-04-06T18:08:57;14.68;;;5.07;;
72201;SDS011;60105;54.956;73.412;2023-04-06T18:11:59;15.43;;;6.83;;
72201;SDS011;60105;54.956;73.412;2023-04-06T18:15:00;22.83;;;4.70;;
72201;SDS011;60105;54.956;73.412;2023-04-06T18:18:04;16.67;;;6.03;;
72201;SDS011;60105;54.956;73.412;2023-04-06T18:21:39;10.20;;;3.92;;
72201;SDS011;60105;54.956;73.412;2023-04-06T18:24:40;10.70;;;4.82;;
72201;SDS011;60105;54.956;73.412;2023-04-06T18:27:47;11.30;;;4.50;;
72201;SDS011;60105;54.956;73.412;2023-04-06T18:31:39;8.63;;;4.12;;
72201;SDS011;60105;54.956;73.412;2023-04-06T18:34:40;11.55;;;4.65;;
72201;SDS011;60105;54.956;73.412;2023-04-06T18:37:42;12.03;;;3.97;;
72201;SDS011;60105;54.956;73.412;2023-04-06T18:40:43;11.48;;;4.55;;
72201;SDS011;60105;54.956;73.412;2023-04-06T18:43:45;9.60;;;4.43;;
72201;SDS011;60105;54.956;73.412;2023-04-06T18:46:46;13.38;;;3.75;;
72201;SDS011;60105;54.956;73.412;2023-04-06T18:49:47;11.77;;;4.18;;
72201;SDS011;60105;54.956;73.412;2023-04-06T18:52:59;6.83;;;3.50;;
72201;SDS011;60105;54.956;73.412;2023-04-06T18:56:39;6.05;;;3.30;;
72201;SDS011;60105;54.956;73.412;2023-04-06T18:59:41;10.93;;;3.78;;
72201;SDS011;60105;54.956;73.412;2023-04-06T19:02:43;13.82;;;3.70;;
72201;SDS011;60105;54.956;73.412;2023-04-06T19:05:45;7.00;;;3.58;;
72201;SDS011;60105;54.956;73.412;2023-04-06T19:08:46;8.73;;;4.20;;
72201;SDS011;60105;54.956;73.412;2023-04-06T19:11:54;13.70;;;4.53;;
72201;SDS011;60105;54.956;73.412;2023-04-06T19:15:05;21.88;;;5.10;;